sensor_id;sensor_type;location;lat;lon;timestamp;pressure;altitude;pressure_sealevel;temperature
21336;BMP180;10826;52.536;13.432;2022-07-06T00:01:46;101525.00;;;23.90
21336;BMP180;10826;52.536;13.432;2022-07-06T00:04:12;101515.00;;;24.00
21336;BMP180;10826;52.536;13.432;2022-07-06T00:06:39;101549.00;;;23.90
21336;BMP180;10826;52.536;13.432;2022-07-06T00:09:06;101493.00;;;23.90
21336;BMP180;10826;52.536;13.432;2022-07-06T00:11:32;101560.00;;;23.90
21336;BMP180;10826;52.536;13.432;2022-07-06T00:13:58;101521.00;;;23.90
21336;BMP180;10826;52.536;13.432;2022-07-06T00:16:25;101544.00;;;23.90
21336;BMP180;10826;52.536;13.432;2022-07-06T00:18:51;101519.00;;;23.90
21336;BMP180;10826;52.536;13.432;2022-07-06T00:21:17;101528.00;;;23.90
21336;BMP180;10826;52.536;13.432;2022-07-06T00:23:44;101526.00;;;23.90
21336;BMP180;10826;52.536;13.432;2022-07-06T00:26:10;101514.00;;;23.80
21336;BMP180;10826;52.536;13.432;2022-07-06T00:28:36;101535.00;;;23.80
21336;BMP180;10826;52.536;13.432;2022-07-06T00:31:02;101518.00;;;23.80
21336;BMP180;10826;52.536;13.432;2022-07-06T00:33:29;101540.00;;;23.80
21336;BMP180;10826;52.536;13.432;2022-07-06T00:35:55;101528.00;;;23.80
21336;BMP180;10826;52.536;13.432;2022-07-06T00:38:21;101531.00;;;23.70
21336;BMP180;10826;52.536;13.432;2022-07-06T00:40:47;101542.00;;;23.70
21336;BMP180;10826;52.536;13.432;2022-07-06T00:43:13;101535.00;;;23.70
21336;BMP180;10826;52.536;13.432;2022-07-06T00:45:39;101536.00;;;23.70
21336;BMP180;10826;52.536;13.432;2022-07-06T00:48:05;101540.00;;;23.60
21336;BMP180;10826;52.536;13.432;2022-07-06T00:50:33;101523.00;;;23.60
21336;BMP180;10826;52.536;13.432;2022-07-06T00:53:03;101511.00;;;23.60
21336;BMP180;10826;52.536;13.432;2022-07-06T00:55:35;101544.00;;;23.60
21336;BMP180;10826;52.536;13.432;2022-07-06T00:58:04;101540.00;;;23.60
21336;BMP180;10826;52.536;13.432;2022-07-06T01:00:31;101528.00;;;23.60
21336;BMP180;10826;52.536;13.432;2022-07-06T01:02:58;101551.00;;;23.60
21336;BMP180;10826;52.536;13.432;2022-07-06T01:05:24;101552.00;;;23.60
21336;BMP180;10826;52.536;13.432;2022-07-06T01:07:52;101552.00;;;23.60
21336;BMP180;10826;52.536;13.432;2022-07-06T01:10:21;101540.00;;;23.60
21336;BMP180;10826;52.536;13.432;2022-07-06T01:12:48;101534.00;;;23.60
21336;BMP180;10826;52.536;13.432;2022-07-06T01:15:24;101530.00;;;23.50
21336;BMP180;10826;52.536;13.432;2022-07-06T01:17:50;101532.00;;;23.50
21336;BMP180;10826;52.536;13.432;2022-07-06T01:20:25;101533.00;;;23.60
21336;BMP180;10826;52.536;13.432;2022-07-06T01:22:53;101547.00;;;23.60
21336;BMP180;10826;52.536;13.432;2022-07-06T01:25:21;101533.00;;;23.50
21336;BMP180;10826;52.536;13.432;2022-07-06T01:27:48;101531.00;;;23.40
21336;BMP180;10826;52.536;13.432;2022-07-06T01:30:18;101535.00;;;23.50
21336;BMP180;10826;52.536;13.432;2022-07-06T01:32:45;101544.00;;;23.50
21336;BMP180;10826;52.536;13.432;2022-07-06T01:35:14;101542.00;;;23.40
21336;BMP180;10826;52.536;13.432;2022-07-06T01:37:41;101557.00;;;23.40
21336;BMP180;10826;52.536;13.432;2022-07-06T01:40:10;101539.00;;;23.40
21336;BMP180;10826;52.536;13.432;2022-07-06T01:42:36;101523.00;;;23.40
21336;BMP180;10826;52.536;13.432;2022-07-06T01:45:07;101535.00;;;23.40
21336;BMP180;10826;52.536;13.432;2022-07-06T01:47:33;101509.00;;;23.40
21336;BMP180;10826;52.536;13.432;2022-07-06T01:50:03;101538.00;;;23.40
21336;BMP180;10826;52.536;13.432;2022-07-06T01:52:30;101539.00;;;23.40
21336;BMP180;10826;52.536;13.432;2022-07-06T01:54:57;101507.00;;;23.40
21336;BMP180;10826;52.536;13.432;2022-07-06T01:57:23;101537.00;;;23.40
21336;BMP180;10826;52.536;13.432;2022-07-06T01:59:48;101539.00;;;23.40
21336;BMP180;10826;52.536;13.432;2022-07-06T02:02:14;101535.00;;;23.40
21336;BMP180;10826;52.536;13.432;2022-07-06T02:04:41;101522.00;;;23.40
21336;BMP180;10826;52.536;13.432;2022-07-06T02:07:06;101547.00;;;23.40
21336;BMP180;10826;52.536;13.432;2022-07-06T02:09:33;101552.00;;;23.40
21336;BMP180;10826;52.536;13.432;2022-07-06T02:11:59;101551.00;;;23.40
21336;BMP180;10826;52.536;13.432;2022-07-06T02:14:24;101560.00;;;23.40
21336;BMP180;10826;52.536;13.432;2022-07-06T02:16:50;101543.00;;;23.40
21336;BMP180;10826;52.536;13.432;2022-07-06T02:19:16;101557.00;;;23.40
21336;BMP180;10826;52.536;13.432;2022-07-06T02:21:42;101537.00;;;23.40
21336;BMP180;10826;52.536;13.432;2022-07-06T02:24:08;101591.00;;;23.40
21336;BMP180;10826;52.536;13.432;2022-07-06T02:26:34;101551.00;;;23.40
21336;BMP180;10826;52.536;13.432;2022-07-06T02:29:00;101592.00;;;23.40
21336;BMP180;10826;52.536;13.432;2022-07-06T02:31:26;101591.00;;;23.40
21336;BMP180;10826;52.536;13.432;2022-07-06T02:33:52;101577.00;;;23.40
21336;BMP180;10826;52.536;13.432;2022-07-06T02:36:18;101570.00;;;23.40
21336;BMP180;10826;52.536;13.432;2022-07-06T02:38:43;101588.00;;;23.40
21336;BMP180;10826;52.536;13.432;2022-07-06T02:41:09;101608.00;;;23.40
21336;BMP180;10826;52.536;13.432;2022-07-06T02:43:37;101588.00;;;23.40
21336;BMP180;10826;52.536;13.432;2022-07-06T02:46:05;101551.00;;;23.40
21336;BMP180;10826;52.536;13.432;2022-07-06T02:48:31;101587.00;;;23.40
21336;BMP180;10826;52.536;13.432;2022-07-06T02:50:57;101575.00;;;23.30
21336;BMP180;10826;52.536;13.432;2022-07-06T02:53:24;101572.00;;;23.30
21336;BMP180;10826;52.536;13.432;2022-07-06T02:55:50;101591.00;;;23.30
21336;BMP180;10826;52.536;13.432;2022-07-06T02:58:16;101602.00;;;23.30
21336;BMP180;10826;52.536;13.432;2022-07-06T03:00:42;101586.00;;;23.30
21336;BMP180;10826;52.536;13.432;2022-07-06T03:03:08;101594.00;;;23.30
21336;BMP180;10826;52.536;13.432;2022-07-06T03:05:35;101586.00;;;23.30
21336;BMP180;10826;52.536;13.432;2022-07-06T03:08:02;101565.00;;;23.30
21336;BMP180;10826;52.536;13.432;2022-07-06T03:10:28;101591.00;;;23.20
21336;BMP180;10826;52.536;13.432;2022-07-06T03:12:54;101577.00;;;23.20
21336;BMP180;10826;52.536;13.432;2022-07-06T03:15:20;101584.00;;;23.20
21336;BMP180;10826;52.536;13.432;2022-07-06T03:17:49;101604.00;;;23.20
21336;BMP180;10826;52.536;13.432;2022-07-06T03:20:16;101606.00;;;23.20
21336;BMP180;10826;52.536;13.432;2022-07-06T03:22:42;101590.00;;;23.20
21336;BMP180;10826;52.536;13.432;2022-07-06T03:25:08;101580.00;;;23.20
21336;BMP180;10826;52.536;13.432;2022-07-06T03:27:34;101586.00;;;23.20
21336;BMP180;10826;52.536;13.432;2022-07-06T03:30:02;101569.00;;;23.20
21336;BMP180;10826;52.536;13.432;2022-07-06T03:32:29;101584.00;;;23.20
21336;BMP180;10826;52.536;13.432;2022-07-06T03:34:55;101603.00;;;23.20
21336;BMP180;10826;52.536;13.432;2022-07-06T03:37:21;101605.00;;;23.20
21336;BMP180;10826;52.536;13.432;2022-07-06T03:39:47;101568.00;;;23.20
21336;BMP180;10826;52.536;13.432;2022-07-06T03:42:13;101601.00;;;23.20
21336;BMP180;10826;52.536;13.432;2022-07-06T03:44:39;101583.00;;;23.10
21336;BMP180;10826;52.536;13.432;2022-07-06T03:47:05;101562.00;;;23.10
21336;BMP180;10826;52.536;13.432;2022-07-06T03:49:31;101606.00;;;23.10
21336;BMP180;10826;52.536;13.432;2022-07-06T03:51:57;101580.00;;;23.10
21336;BMP180;10826;52.536;13.432;2022-07-06T03:54:23;101576.00;;;23.10
21336;BMP180;10826;52.536;13.432;2022-07-06T03:56:49;101599.00;;;23.10
21336;BMP180;10826;52.536;13.432;2022-07-06T03:59:15;101576.00;;;23.10
21336;BMP180;10826;52.536;13.432;2022-07-06T04:01:41;101583.00;;;23.10
21336;BMP180;10826;52.536;13.432;2022-07-06T04:04:07;101555.00;;;23.10
21336;BMP180;10826;52.536;13.432;2022-07-06T04:06:35;101601.00;;;23.10
21336;BMP180;10826;52.536;13.432;2022-07-06T04:09:01;101591.00;;;23.20
21336;BMP180;10826;52.536;13.432;2022-07-06T04:11:28;101589.00;;;23.20
21336;BMP180;10826;52.536;13.432;2022-07-06T04:13:54;101581.00;;;23.10
21336;BMP180;10826;52.536;13.432;2022-07-06T04:16:20;101577.00;;;23.20
21336;BMP180;10826;52.536;13.432;2022-07-06T04:18:47;101578.00;;;23.20
21336;BMP180;10826;52.536;13.432;2022-07-06T04:21:16;101598.00;;;23.20
21336;BMP180;10826;52.536;13.432;2022-07-06T04:23:42;101581.00;;;23.20
21336;BMP180;10826;52.536;13.432;2022-07-06T04:26:11;101578.00;;;23.20
21336;BMP180;10826;52.536;13.432;2022-07-06T04:28:37;101593.00;;;23.20
21336;BMP180;10826;52.536;13.432;2022-07-06T04:31:03;101603.00;;;23.30
21336;BMP180;10826;52.536;13.432;2022-07-06T04:33:30;101596.00;;;23.30
21336;BMP180;10826;52.536;13.432;2022-07-06T04:35:56;101590.00;;;23.20
21336;BMP180;10826;52.536;13.432;2022-07-06T04:38:22;101601.00;;;23.30
21336;BMP180;10826;52.536;13.432;2022-07-06T04:40:48;101599.00;;;23.30
21336;BMP180;10826;52.536;13.432;2022-07-06T04:43:14;101605.00;;;23.20
21336;BMP180;10826;52.536;13.432;2022-07-06T04:45:40;101590.00;;;23.20
21336;BMP180;10826;52.536;13.432;2022-07-06T04:48:06;101589.00;;;23.10
21336;BMP180;10826;52.536;13.432;2022-07-06T04:50:34;101558.00;;;23.10
21336;BMP180;10826;52.536;13.432;2022-07-06T04:53:00;101599.00;;;23.10
21336;BMP180;10826;52.536;13.432;2022-07-06T04:55:26;101581.00;;;23.10
21336;BMP180;10826;52.536;13.432;2022-07-06T04:57:52;101600.00;;;23.10
21336;BMP180;10826;52.536;13.432;2022-07-06T05:00:18;101585.00;;;23.20
21336;BMP180;10826;52.536;13.432;2022-07-06T05:02:44;101575.00;;;23.20
21336;BMP180;10826;52.536;13.432;2022-07-06T05:05:10;101585.00;;;23.20
21336;BMP180;10826;52.536;13.432;2022-07-06T05:07:37;101601.00;;;23.20
21336;BMP180;10826;52.536;13.432;2022-07-06T05:10:10;101601.00;;;23.20
21336;BMP180;10826;52.536;13.432;2022-07-06T05:12:37;101605.00;;;23.20
21336;BMP180;10826;52.536;13.432;2022-07-06T05:15:05;101614.00;;;23.20
21336;BMP180;10826;52.536;13.432;2022-07-06T05:17:31;101614.00;;;23.20
21336;BMP180;10826;52.536;13.432;2022-07-06T05:19:57;101595.00;;;23.20
21336;BMP180;10826;52.536;13.432;2022-07-06T05:22:23;101601.00;;;23.30
21336;BMP180;10826;52.536;13.432;2022-07-06T05:24:51;101601.00;;;23.30
21336;BMP180;10826;52.536;13.432;2022-07-06T05:27:17;101597.00;;;23.40
21336;BMP180;10826;52.536;13.432;2022-07-06T05:29:48;101602.00;;;23.50
21336;BMP180;10826;52.536;13.432;2022-07-06T05:32:14;101595.00;;;23.50
21336;BMP180;10826;52.536;13.432;2022-07-06T05:34:43;101593.00;;;23.50
21336;BMP180;10826;52.536;13.432;2022-07-06T05:37:10;101579.00;;;23.60
21336;BMP180;10826;52.536;13.432;2022-07-06T05:39:39;101573.00;;;23.60
21336;BMP180;10826;52.536;13.432;2022-07-06T05:42:09;101603.00;;;23.70
21336;BMP180;10826;52.536;13.432;2022-07-06T05:44:35;101601.00;;;23.70
21336;BMP180;10826;52.536;13.432;2022-07-06T05:47:01;101597.00;;;23.80
21336;BMP180;10826;52.536;13.432;2022-07-06T05:50:07;101588.00;;;23.90
21336;BMP180;10826;52.536;13.432;2022-07-06T05:52:41;101587.00;;;23.90
21336;BMP180;10826;52.536;13.432;2022-07-06T05:55:12;101604.00;;;24.00
21336;BMP180;10826;52.536;13.432;2022-07-06T05:57:39;101592.00;;;24.00
21336;BMP180;10826;52.536;13.432;2022-07-06T06:00:09;101602.00;;;24.10
21336;BMP180;10826;52.536;13.432;2022-07-06T06:02:46;101585.00;;;24.00
21336;BMP180;10826;52.536;13.432;2022-07-06T06:05:19;101590.00;;;24.10
21336;BMP180;10826;52.536;13.432;2022-07-06T06:07:52;101600.00;;;24.00
21336;BMP180;10826;52.536;13.432;2022-07-06T06:10:24;101571.00;;;24.20
21336;BMP180;10826;52.536;13.432;2022-07-06T06:12:57;101602.00;;;24.30
21336;BMP180;10826;52.536;13.432;2022-07-06T06:15:32;101595.00;;;24.40
21336;BMP180;10826;52.536;13.432;2022-07-06T06:18:02;101595.00;;;24.40
21336;BMP180;10826;52.536;13.432;2022-07-06T06:20:32;101616.00;;;24.40
21336;BMP180;10826;52.536;13.432;2022-07-06T06:23:01;101582.00;;;24.50
21336;BMP180;10826;52.536;13.432;2022-07-06T06:25:35;101597.00;;;24.60
21336;BMP180;10826;52.536;13.432;2022-07-06T06:28:08;101607.00;;;24.60
21336;BMP180;10826;52.536;13.432;2022-07-06T06:30:36;101602.00;;;24.70
21336;BMP180;10826;52.536;13.432;2022-07-06T06:33:17;101570.00;;;24.70
21336;BMP180;10826;52.536;13.432;2022-07-06T06:35:49;101557.00;;;24.80
21336;BMP180;10826;52.536;13.432;2022-07-06T06:38:17;101581.00;;;24.80
21336;BMP180;10826;52.536;13.432;2022-07-06T06:40:44;101605.00;;;24.90
21336;BMP180;10826;52.536;13.432;2022-07-06T06:43:10;101556.00;;;25.00
21336;BMP180;10826;52.536;13.432;2022-07-06T06:45:37;101596.00;;;25.10
21336;BMP180;10826;52.536;13.432;2022-07-06T06:48:07;101602.00;;;25.20
21336;BMP180;10826;52.536;13.432;2022-07-06T06:50:33;101603.00;;;25.20
21336;BMP180;10826;52.536;13.432;2022-07-06T06:52:59;101568.00;;;25.20
21336;BMP180;10826;52.536;13.432;2022-07-06T06:55:25;101590.00;;;25.30
21336;BMP180;10826;52.536;13.432;2022-07-06T06:57:52;101613.00;;;25.30
21336;BMP180;10826;52.536;13.432;2022-07-06T07:00:18;101598.00;;;25.20
21336;BMP180;10826;52.536;13.432;2022-07-06T07:02:45;101605.00;;;25.20
21336;BMP180;10826;52.536;13.432;2022-07-06T07:05:11;101615.00;;;25.20
21336;BMP180;10826;52.536;13.432;2022-07-06T07:07:37;101603.00;;;25.20
21336;BMP180;10826;52.536;13.432;2022-07-06T07:10:05;101603.00;;;25.20
21336;BMP180;10826;52.536;13.432;2022-07-06T07:12:34;101613.00;;;25.20
21336;BMP180;10826;52.536;13.432;2022-07-06T07:15:01;101603.00;;;25.20
21336;BMP180;10826;52.536;13.432;2022-07-06T07:17:27;101603.00;;;25.20
21336;BMP180;10826;52.536;13.432;2022-07-06T07:19:53;101614.00;;;25.20
21336;BMP180;10826;52.536;13.432;2022-07-06T07:22:21;101607.00;;;25.30
21336;BMP180;10826;52.536;13.432;2022-07-06T07:24:47;101624.00;;;25.30
21336;BMP180;10826;52.536;13.432;2022-07-06T07:27:13;101608.00;;;25.40
21336;BMP180;10826;52.536;13.432;2022-07-06T07:29:39;101616.00;;;25.50
21336;BMP180;10826;52.536;13.432;2022-07-06T07:32:13;101623.00;;;25.60
21336;BMP180;10826;52.536;13.432;2022-07-06T07:34:39;101606.00;;;25.50
21336;BMP180;10826;52.536;13.432;2022-07-06T07:37:06;101601.00;;;25.60
21336;BMP180;10826;52.536;13.432;2022-07-06T07:39:32;101603.00;;;25.60
21336;BMP180;10826;52.536;13.432;2022-07-06T07:41:58;101609.00;;;25.50
21336;BMP180;10826;52.536;13.432;2022-07-06T07:44:24;101614.00;;;25.50
21336;BMP180;10826;52.536;13.432;2022-07-06T07:46:53;101621.00;;;25.50
21336;BMP180;10826;52.536;13.432;2022-07-06T07:49:20;101607.00;;;25.60
21336;BMP180;10826;52.536;13.432;2022-07-06T07:51:50;101599.00;;;25.60
21336;BMP180;10826;52.536;13.432;2022-07-06T07:54:16;101613.00;;;25.60
21336;BMP180;10826;52.536;13.432;2022-07-06T07:56:42;101631.00;;;25.60
21336;BMP180;10826;52.536;13.432;2022-07-06T07:59:11;101635.00;;;25.70
21336;BMP180;10826;52.536;13.432;2022-07-06T08:01:38;101637.00;;;25.70
21336;BMP180;10826;52.536;13.432;2022-07-06T08:04:04;101617.00;;;25.70
21336;BMP180;10826;52.536;13.432;2022-07-06T08:06:31;101619.00;;;25.70
21336;BMP180;10826;52.536;13.432;2022-07-06T08:08:57;101618.00;;;25.70
21336;BMP180;10826;52.536;13.432;2022-07-06T08:11:23;101613.00;;;25.80
21336;BMP180;10826;52.536;13.432;2022-07-06T08:13:52;101630.00;;;25.80
21336;BMP180;10826;52.536;13.432;2022-07-06T08:16:19;101625.00;;;25.80
21336;BMP180;10826;52.536;13.432;2022-07-06T08:18:45;101576.00;;;25.80
21336;BMP180;10826;52.536;13.432;2022-07-06T08:21:11;101585.00;;;25.90
21336;BMP180;10826;52.536;13.432;2022-07-06T08:23:40;101627.00;;;26.00
21336;BMP180;10826;52.536;13.432;2022-07-06T08:26:06;101582.00;;;26.10
21336;BMP180;10826;52.536;13.432;2022-07-06T08:28:32;101622.00;;;26.20
21336;BMP180;10826;52.536;13.432;2022-07-06T08:30:58;101623.00;;;26.20
21336;BMP180;10826;52.536;13.432;2022-07-06T08:33:24;101604.00;;;26.20
21336;BMP180;10826;52.536;13.432;2022-07-06T08:35:51;101633.00;;;26.30
21336;BMP180;10826;52.536;13.432;2022-07-06T08:38:18;101641.00;;;26.30
21336;BMP180;10826;52.536;13.432;2022-07-06T08:40:48;101637.00;;;26.30
21336;BMP180;10826;52.536;13.432;2022-07-06T08:43:15;101618.00;;;26.40
21336;BMP180;10826;52.536;13.432;2022-07-06T08:45:41;101640.00;;;26.60
21336;BMP180;10826;52.536;13.432;2022-07-06T08:48:11;101628.00;;;26.60
21336;BMP180;10826;52.536;13.432;2022-07-06T08:50:38;101637.00;;;26.70
21336;BMP180;10826;52.536;13.432;2022-07-06T08:53:05;101643.00;;;26.70
21336;BMP180;10826;52.536;13.432;2022-07-06T08:55:33;101632.00;;;26.60
21336;BMP180;10826;52.536;13.432;2022-07-06T08:58:02;101632.00;;;26.60
21336;BMP180;10826;52.536;13.432;2022-07-06T09:00:31;101616.00;;;26.40
21336;BMP180;10826;52.536;13.432;2022-07-06T09:02:59;101625.00;;;26.30
21336;BMP180;10826;52.536;13.432;2022-07-06T09:05:25;101637.00;;;26.20
21336;BMP180;10826;52.536;13.432;2022-07-06T09:07:52;101623.00;;;26.20
21336;BMP180;10826;52.536;13.432;2022-07-06T09:10:21;101635.00;;;26.20
21336;BMP180;10826;52.536;13.432;2022-07-06T09:12:48;101638.00;;;26.20
21336;BMP180;10826;52.536;13.432;2022-07-06T09:15:15;101640.00;;;26.20
21336;BMP180;10826;52.536;13.432;2022-07-06T09:17:43;101645.00;;;26.30
21336;BMP180;10826;52.536;13.432;2022-07-06T09:20:12;101630.00;;;26.30
21336;BMP180;10826;52.536;13.432;2022-07-06T09:22:39;101641.00;;;26.30
21336;BMP180;10826;52.536;13.432;2022-07-06T09:25:12;101609.00;;;26.30
21336;BMP180;10826;52.536;13.432;2022-07-06T09:27:46;101628.00;;;26.40
21336;BMP180;10826;52.536;13.432;2022-07-06T09:30:16;101645.00;;;26.40
21336;BMP180;10826;52.536;13.432;2022-07-06T09:32:51;101644.00;;;26.60
21336;BMP180;10826;52.536;13.432;2022-07-06T09:35:36;101630.00;;;26.70
21336;BMP180;10826;52.536;13.432;2022-07-06T09:38:09;101649.00;;;26.80
21336;BMP180;10826;52.536;13.432;2022-07-06T09:40:44;101646.00;;;26.80
21336;BMP180;10826;52.536;13.432;2022-07-06T09:43:21;101646.00;;;26.70
21336;BMP180;10826;52.536;13.432;2022-07-06T09:45:53;101642.00;;;26.60
21336;BMP180;10826;52.536;13.432;2022-07-06T09:48:25;101636.00;;;26.50
21336;BMP180;10826;52.536;13.432;2022-07-06T09:50:55;101645.00;;;26.50
21336;BMP180;10826;52.536;13.432;2022-07-06T09:53:26;101647.00;;;26.50
21336;BMP180;10826;52.536;13.432;2022-07-06T09:55:56;101651.00;;;26.60
21336;BMP180;10826;52.536;13.432;2022-07-06T09:58:28;101632.00;;;26.60
21336;BMP180;10826;52.536;13.432;2022-07-06T10:00:57;101650.00;;;26.70
21336;BMP180;10826;52.536;13.432;2022-07-06T10:03:24;101654.00;;;26.80
21336;BMP180;10826;52.536;13.432;2022-07-06T10:05:50;101633.00;;;26.90
21336;BMP180;10826;52.536;13.432;2022-07-06T10:08:23;101657.00;;;26.80
21336;BMP180;10826;52.536;13.432;2022-07-06T10:10:54;101645.00;;;26.90
21336;BMP180;10826;52.536;13.432;2022-07-06T10:13:23;101655.00;;;26.90
21336;BMP180;10826;52.536;13.432;2022-07-06T10:15:53;101661.00;;;26.80
21336;BMP180;10826;52.536;13.432;2022-07-06T10:18:20;101668.00;;;26.70
21336;BMP180;10826;52.536;13.432;2022-07-06T10:20:46;101661.00;;;26.70
21336;BMP180;10826;52.536;13.432;2022-07-06T10:23:14;101663.00;;;26.70
21336;BMP180;10826;52.536;13.432;2022-07-06T10:25:41;101669.00;;;26.70
21336;BMP180;10826;52.536;13.432;2022-07-06T10:28:08;101639.00;;;26.70
21336;BMP180;10826;52.536;13.432;2022-07-06T10:31:00;101662.00;;;26.70
21336;BMP180;10826;52.536;13.432;2022-07-06T10:33:27;101653.00;;;26.70
21336;BMP180;10826;52.536;13.432;2022-07-06T10:35:53;101659.00;;;26.70
21336;BMP180;10826;52.536;13.432;2022-07-06T10:38:32;101651.00;;;26.80
21336;BMP180;10826;52.536;13.432;2022-07-06T10:41:07;101666.00;;;26.80
21336;BMP180;10826;52.536;13.432;2022-07-06T10:43:45;101653.00;;;26.90
21336;BMP180;10826;52.536;13.432;2022-07-06T10:46:16;101658.00;;;26.90
21336;BMP180;10826;52.536;13.432;2022-07-06T10:48:47;101656.00;;;27.00
21336;BMP180;10826;52.536;13.432;2022-07-06T10:51:28;101652.00;;;27.20
21336;BMP180;10826;52.536;13.432;2022-07-06T10:54:00;101641.00;;;27.20
21336;BMP180;10826;52.536;13.432;2022-07-06T10:56:44;101657.00;;;27.30
21336;BMP180;10826;52.536;13.432;2022-07-06T10:59:22;101631.00;;;27.30
21336;BMP180;10826;52.536;13.432;2022-07-06T11:04:46;101633.00;;;27.40
21336;BMP180;10826;52.536;13.432;2022-07-06T11:07:16;101638.00;;;27.40
21336;BMP180;10826;52.536;13.432;2022-07-06T11:09:56;101649.00;;;27.50
21336;BMP180;10826;52.536;13.432;2022-07-06T11:12:23;101644.00;;;27.50
21336;BMP180;10826;52.536;13.432;2022-07-06T11:14:51;101645.00;;;27.50
21336;BMP180;10826;52.536;13.432;2022-07-06T11:17:19;101641.00;;;27.60
21336;BMP180;10826;52.536;13.432;2022-07-06T11:20:12;101629.00;;;27.60
21336;BMP180;10826;52.536;13.432;2022-07-06T11:22:38;101640.00;;;27.60
21336;BMP180;10826;52.536;13.432;2022-07-06T11:25:06;101646.00;;;27.70
21336;BMP180;10826;52.536;13.432;2022-07-06T11:27:34;101649.00;;;27.70
21336;BMP180;10826;52.536;13.432;2022-07-06T11:30:01;101631.00;;;27.70
21336;BMP180;10826;52.536;13.432;2022-07-06T11:32:27;101640.00;;;27.60
21336;BMP180;10826;52.536;13.432;2022-07-06T11:34:54;101651.00;;;27.50
21336;BMP180;10826;52.536;13.432;2022-07-06T11:37:21;101640.00;;;27.40
21336;BMP180;10826;52.536;13.432;2022-07-06T11:39:49;101643.00;;;27.40
21336;BMP180;10826;52.536;13.432;2022-07-06T11:42:17;101651.00;;;27.40
21336;BMP180;10826;52.536;13.432;2022-07-06T11:44:45;101649.00;;;27.50
21336;BMP180;10826;52.536;13.432;2022-07-06T11:47:15;101647.00;;;27.60
21336;BMP180;10826;52.536;13.432;2022-07-06T11:49:42;101648.00;;;27.60
21336;BMP180;10826;52.536;13.432;2022-07-06T11:52:13;101620.00;;;27.60
21336;BMP180;10826;52.536;13.432;2022-07-06T11:54:42;101643.00;;;27.60
21336;BMP180;10826;52.536;13.432;2022-07-06T11:57:12;101649.00;;;27.60
21336;BMP180;10826;52.536;13.432;2022-07-06T11:59:41;101642.00;;;27.60
21336;BMP180;10826;52.536;13.432;2022-07-06T12:02:14;101645.00;;;27.60
21336;BMP180;10826;52.536;13.432;2022-07-06T12:04:44;101626.00;;;27.60
21336;BMP180;10826;52.536;13.432;2022-07-06T12:07:14;101574.00;;;27.50
21336;BMP180;10826;52.536;13.432;2022-07-06T12:09:44;101614.00;;;27.30
21336;BMP180;10826;52.536;13.432;2022-07-06T12:12:11;101630.00;;;27.50
21336;BMP180;10826;52.536;13.432;2022-07-06T12:14:40;101624.00;;;27.50
21336;BMP180;10826;52.536;13.432;2022-07-06T12:17:14;101615.00;;;27.60
21336;BMP180;10826;52.536;13.432;2022-07-06T12:19:41;101632.00;;;27.60
21336;BMP180;10826;52.536;13.432;2022-07-06T12:22:09;101608.00;;;27.60
21336;BMP180;10826;52.536;13.432;2022-07-06T12:24:37;101629.00;;;27.50
21336;BMP180;10826;52.536;13.432;2022-07-06T12:27:15;101632.00;;;27.50
21336;BMP180;10826;52.536;13.432;2022-07-06T12:29:42;101621.00;;;27.40
21336;BMP180;10826;52.536;13.432;2022-07-06T12:32:22;101607.00;;;27.30
21336;BMP180;10826;52.536;13.432;2022-07-06T12:35:13;101625.00;;;27.40
21336;BMP180;10826;52.536;13.432;2022-07-06T12:37:55;101602.00;;;27.40
21336;BMP180;10826;52.536;13.432;2022-07-06T12:40:26;101629.00;;;27.50
21336;BMP180;10826;52.536;13.432;2022-07-06T12:42:55;101614.00;;;27.50
21336;BMP180;10826;52.536;13.432;2022-07-06T12:45:27;101605.00;;;27.60
21336;BMP180;10826;52.536;13.432;2022-07-06T12:48:02;101617.00;;;27.70
21336;BMP180;10826;52.536;13.432;2022-07-06T12:50:35;101589.00;;;27.80
21336;BMP180;10826;52.536;13.432;2022-07-06T12:53:03;101596.00;;;27.80
21336;BMP180;10826;52.536;13.432;2022-07-06T12:55:33;101599.00;;;27.90
21336;BMP180;10826;52.536;13.432;2022-07-06T12:57:59;101616.00;;;27.90
21336;BMP180;10826;52.536;13.432;2022-07-06T13:00:25;101584.00;;;27.80
21336;BMP180;10826;52.536;13.432;2022-07-06T13:02:53;101597.00;;;27.80
21336;BMP180;10826;52.536;13.432;2022-07-06T13:05:25;101588.00;;;27.80
21336;BMP180;10826;52.536;13.432;2022-07-06T13:07:56;101594.00;;;27.80
21336;BMP180;10826;52.536;13.432;2022-07-06T13:10:27;101618.00;;;27.80
21336;BMP180;10826;52.536;13.432;2022-07-06T13:12:56;101620.00;;;27.80
21336;BMP180;10826;52.536;13.432;2022-07-06T13:15:22;101588.00;;;27.90
21336;BMP180;10826;52.536;13.432;2022-07-06T13:17:48;101609.00;;;28.00
21336;BMP180;10826;52.536;13.432;2022-07-06T13:20:14;101582.00;;;28.00
21336;BMP180;10826;52.536;13.432;2022-07-06T13:22:42;101607.00;;;28.10
21336;BMP180;10826;52.536;13.432;2022-07-06T13:25:09;101605.00;;;28.10
21336;BMP180;10826;52.536;13.432;2022-07-06T13:27:35;101584.00;;;28.10
21336;BMP180;10826;52.536;13.432;2022-07-06T13:30:02;101601.00;;;28.10
21336;BMP180;10826;52.536;13.432;2022-07-06T13:32:28;101567.00;;;28.10
21336;BMP180;10826;52.536;13.432;2022-07-06T13:34:55;101595.00;;;28.20
21336;BMP180;10826;52.536;13.432;2022-07-06T13:37:21;101588.00;;;28.20
21336;BMP180;10826;52.536;13.432;2022-07-06T13:39:47;101570.00;;;28.30
21336;BMP180;10826;52.536;13.432;2022-07-06T13:42:13;101596.00;;;28.40
21336;BMP180;10826;52.536;13.432;2022-07-06T13:44:39;101599.00;;;28.50
21336;BMP180;10826;52.536;13.432;2022-07-06T13:47:05;101596.00;;;28.50
21336;BMP180;10826;52.536;13.432;2022-07-06T13:49:32;101598.00;;;28.50
21336;BMP180;10826;52.536;13.432;2022-07-06T13:51:57;101602.00;;;28.50
21336;BMP180;10826;52.536;13.432;2022-07-06T13:54:30;101594.00;;;28.40